Chapel Hill, NC (27514)

11:01 AM EST on December 20, 2014 (GMT -0500)
Cosgrove Hill | Change Station
CLOSE
Current Station
Personal Weather Station
Location: Chapel Hill, NC
Elevation: 325 ft
Nearby Weather Stations

Elev 325 ft 35.95 °N, 79.02 °W | Updated 6 seconds ago

Overcast
Overcast
34.2 °F
Feels Like 34 °F
N
0.0
Wind Variable Wind from East
Gusts 0.0 mph

Today
High -- | Low -- °F
--% Chance of Precip.
Yesterday
High -- | Low -- °F
Precip. -- in
7:22 AM 5:05 PM
Waning Crescent, 3% visible
Pressure 30.31 in
Visibility 9.0 miles
Clouds Mostly Cloudy 4700 ft
Mostly Cloudy 7000 ft
Overcast 9000 ft
Windchill 34 °F
Dew Point 32 °F
Humidity 90%
Rainfall 0.00 in
Snow Depth Not available.
UV 1 out of 12
Pollen .50 out of 12
Air Quality Not available.
Flu Activity Not available.
METAR KIGX 201556Z AUTO 02003KT 9SM BKN047 BKN070 OVC090 01/M01 A3031 RMK AO2 RAB03E26UPB26E49SNE03 SLP264 P0001 T00061011

More Conditions Fewer Conditions

Pressure 30.31 in
Visibility 9.0 miles
Clouds Mostly Cloudy 4700 ft
Mostly Cloudy 7000 ft
Overcast 9000 ft
Windchill 34 °F
Dew Point 32 °F
Humidity 90%
Rainfall 0.00 in
Snow Depth Not available.
UV 1 out of 12
Pollen .50 out of 12
Air Quality Not available.
Flu Activity Not available.
METAR KIGX 201556Z AUTO 02003KT 9SM BKN047 BKN070 OVC090 01/M01 A3031 RMK AO2 RAB03E26UPB26E49SNE03 SLP264 P0001 T00061011

More Conditions Fewer Conditions

10-Day Weather Forecast

Almanac

Astronomy

Dec. 20, 2014 Rise Set
Actual Time
Civil Twilight
Nautical Twilight
Astronomical Twilight
Moon
Length of Visible Light
Length of Day
Tomorrow will be .
, % of the Moon is Illuminated

Today's Extremes

State Highs State Lows

Community

WunderPhotos

Upload Photos

1,779,212 photos uploaded!

WunderBlogs® & News

Nearby

Air Quality

  Air Quality AQ Index Pollutant
Not available.

Snow Depth

Station Depth Elevation

Earthquake Activity

City Distance Mag. Time & Date
Minimum magnitude displayed is 2.5.

Coastal Water Temperatures

Place Temperature

Nearby Weather Stations